createdAt,value
2023-02-25T00:01:12.002Z,2.60
2023-02-25T00:03:39.792Z,2.60
2023-02-25T00:06:09.718Z,2.60
2023-02-25T00:08:36.958Z,2.60
2023-02-25T00:11:06.415Z,2.60
2023-02-25T00:13:34.826Z,2.60
2023-02-25T00:16:05.811Z,2.60
2023-02-25T00:18:32.867Z,2.50
2023-02-25T00:21:03.895Z,2.60
2023-02-25T00:23:31.047Z,2.60
2023-02-25T00:26:03.560Z,2.60
2023-02-25T00:28:30.550Z,2.60
2023-02-25T00:30:57.668Z,2.60
2023-02-25T00:33:24.833Z,2.60
2023-02-25T00:35:51.766Z,2.50
2023-02-25T00:38:19.019Z,2.50
2023-02-25T00:40:45.986Z,2.40
2023-02-25T00:43:12.933Z,2.40
2023-02-25T00:45:42.935Z,2.30
2023-02-25T00:48:09.869Z,2.30
2023-02-25T00:50:39.843Z,2.30
2023-02-25T00:53:06.807Z,2.30
2023-02-25T00:55:33.819Z,2.30
2023-02-25T00:58:01.583Z,2.30
2023-02-25T01:00:29.953Z,2.30
2023-02-25T01:02:58.713Z,2.30
2023-02-25T01:05:25.927Z,2.30
2023-02-25T01:07:53.103Z,2.30
2023-02-25T01:10:20.188Z,2.30
2023-02-25T01:12:47.162Z,2.30
2023-02-25T01:15:14.467Z,2.30
2023-02-25T01:17:41.941Z,2.30
2023-02-25T01:20:12.853Z,2.30
2023-02-25T01:22:42.013Z,2.30
2023-02-25T01:25:13.560Z,2.30
2023-02-25T01:27:40.508Z,2.30
2023-02-25T01:30:08.866Z,2.30
2023-02-25T01:32:36.130Z,2.30
2023-02-25T01:35:03.218Z,2.30
2023-02-25T01:37:30.188Z,2.30
2023-02-25T01:39:57.279Z,2.30
2023-02-25T01:42:24.261Z,2.30
2023-02-25T01:45:22.392Z,2.30
2023-02-25T01:48:11.403Z,2.30
2023-02-25T01:50:45.717Z,2.30
2023-02-25T01:53:13.482Z,2.30
2023-02-25T01:55:41.552Z,2.30
2023-02-25T01:58:09.528Z,2.30
2023-02-25T02:00:38.070Z,2.30
2023-02-25T02:03:06.324Z,2.30
2023-02-25T02:05:45.734Z,2.30
2023-02-25T02:08:13.108Z,2.20
2023-02-25T02:10:40.026Z,2.20
2023-02-25T02:13:07.015Z,2.20
2023-02-25T02:15:39.431Z,2.20
2023-02-25T02:18:08.133Z,2.20
2023-02-25T02:21:35.156Z,2.20
2023-02-25T02:24:35.267Z,2.20
2023-02-25T02:27:11.613Z,2.20
2023-02-25T02:30:00.255Z,2.20
2023-02-25T02:32:27.252Z,2.10
2023-02-25T02:35:13.000Z,2.20
2023-02-25T02:37:47.506Z,2.10
2023-02-25T02:40:26.734Z,2.10
2023-02-25T02:43:15.269Z,2.10
2023-02-25T02:45:50.999Z,2.10
2023-02-25T02:48:24.410Z,2.20
2023-02-25T02:51:11.771Z,2.20
2023-02-25T02:53:47.059Z,2.20
2023-02-25T02:56:17.339Z,2.20
2023-02-25T02:59:09.453Z,2.20
2023-02-25T03:01:44.430Z,2.20
2023-02-25T03:04:17.210Z,2.30
2023-02-25T03:06:48.245Z,2.30
2023-02-25T03:09:25.628Z,2.30
2023-02-25T03:11:52.701Z,2.30
2023-02-25T03:14:19.660Z,2.20
2023-02-25T03:17:02.490Z,2.30
2023-02-25T03:20:14.393Z,2.20
2023-02-25T03:22:44.265Z,2.20
2023-02-25T03:25:32.067Z,2.20
2023-02-25T03:28:18.208Z,2.30
2023-02-25T03:30:51.700Z,2.20
2023-02-25T03:33:48.679Z,2.20
2023-02-25T03:36:59.335Z,2.10
2023-02-25T03:39:29.767Z,2.10
2023-02-25T03:42:00.391Z,2.10
2023-02-25T03:44:31.739Z,2.10
2023-02-25T03:46:59.812Z,2.10
2023-02-25T03:49:33.300Z,2.10
2023-02-25T03:52:06.250Z,2.00
2023-02-25T03:54:33.162Z,2.00
2023-02-25T03:57:00.064Z,1.90
2023-02-25T03:59:28.231Z,1.80
2023-02-25T04:01:56.630Z,1.70
2023-02-25T04:04:23.706Z,1.60
2023-02-25T04:06:50.655Z,1.50
2023-02-25T04:09:17.570Z,1.40
2023-02-25T04:11:44.508Z,1.40
2023-02-25T04:14:11.397Z,1.40
2023-02-25T04:16:38.398Z,1.40
2023-02-25T04:19:05.275Z,1.30
2023-02-25T04:21:36.996Z,1.40
2023-02-25T04:24:06.893Z,1.40
2023-02-25T04:26:34.769Z,1.40
2023-02-25T04:29:02.384Z,1.30
2023-02-25T04:31:29.553Z,1.30
2023-02-25T04:33:58.298Z,1.30
2023-02-25T04:36:31.838Z,1.30
2023-02-25T04:39:01.606Z,1.30
2023-02-25T04:41:31.207Z,1.20
2023-02-25T04:43:59.258Z,1.20
2023-02-25T04:46:26.797Z,1.10
2023-02-25T04:48:53.968Z,1.10
2023-02-25T04:51:21.408Z,1.10
2023-02-25T04:53:48.768Z,1.00
2023-02-25T04:56:15.935Z,1.00
2023-02-25T04:58:43.124Z,1.00
2023-02-25T05:01:11.035Z,1.00
2023-02-25T05:03:38.868Z,0.90
2023-02-25T05:06:06.276Z,0.90
2023-02-25T05:08:34.294Z,0.90
2023-02-25T05:11:01.943Z,0.90
2023-02-25T05:13:29.568Z,0.90
2023-02-25T05:16:06.737Z,0.90
2023-02-25T05:18:40.275Z,0.90
2023-02-25T05:21:12.810Z,0.90
2023-02-25T05:23:40.911Z,0.90
2023-02-25T05:26:08.013Z,0.80
2023-02-25T05:28:35.675Z,0.90
2023-02-25T05:31:07.549Z,0.80
2023-02-25T05:33:36.730Z,0.80
2023-02-25T05:36:13.019Z,0.80
2023-02-25T05:38:40.825Z,0.90
2023-02-25T05:41:08.836Z,0.90
2023-02-25T05:43:37.155Z,0.90
2023-02-25T05:46:05.140Z,0.80
2023-02-25T05:48:32.962Z,0.90
2023-02-25T05:51:02.870Z,0.90
2023-02-25T05:53:29.965Z,0.90
2023-02-25T05:55:56.928Z,0.90
2023-02-25T05:58:24.279Z,0.90
2023-02-25T06:00:51.258Z,0.90
2023-02-25T06:03:18.662Z,0.90
2023-02-25T06:05:47.836Z,0.90
2023-02-25T06:08:15.005Z,1.00
2023-02-25T06:10:42.065Z,0.90
2023-02-25T06:13:10.581Z,1.00
2023-02-25T06:15:39.103Z,1.00
2023-02-25T06:18:06.520Z,1.00
2023-02-25T06:20:35.309Z,1.10
2023-02-25T06:23:03.599Z,1.10
2023-02-25T06:25:32.275Z,1.10
2023-02-25T06:28:01.102Z,1.20
2023-02-25T06:30:29.875Z,1.20
2023-02-25T06:32:57.491Z,1.30
2023-02-25T06:35:24.946Z,1.40
2023-02-25T06:37:56.730Z,1.40
2023-02-25T06:40:24.016Z,1.50
2023-02-25T06:42:50.980Z,1.60
2023-02-25T06:45:18.018Z,1.60
2023-02-25T06:48:03.410Z,1.60
2023-02-25T06:50:30.383Z,1.60
2023-02-25T06:52:58.431Z,1.60
2023-02-25T06:55:25.592Z,1.60
2023-02-25T06:57:54.815Z,1.70
2023-02-25T07:00:22.105Z,1.80
2023-02-25T07:02:49.029Z,1.90
2023-02-25T07:05:16.047Z,1.90
2023-02-25T07:07:42.961Z,2.00
2023-02-25T07:10:11.844Z,2.10
2023-02-25T07:12:38.836Z,2.20
2023-02-25T07:15:06.293Z,2.20
2023-02-25T07:17:33.215Z,2.30
2023-02-25T07:20:00.146Z,2.30
2023-02-25T07:22:27.110Z,2.20
2023-02-25T07:24:54.080Z,2.10
2023-02-25T07:27:21.014Z,2.20
2023-02-25T07:29:47.976Z,2.20
2023-02-25T07:32:15.121Z,2.30
2023-02-25T07:34:42.309Z,2.20
2023-02-25T07:37:09.344Z,2.20
2023-02-25T07:39:36.268Z,2.20
2023-02-25T07:42:03.268Z,2.20
2023-02-25T07:44:30.275Z,2.20
2023-02-25T07:46:57.228Z,2.30
2023-02-25T07:49:24.301Z,2.30
2023-02-25T07:51:51.257Z,2.30
2023-02-25T07:54:21.275Z,2.30
2023-02-25T07:56:51.538Z,2.20
2023-02-25T07:59:19.633Z,2.30
2023-02-25T08:01:47.949Z,2.40
2023-02-25T08:04:14.952Z,2.50
2023-02-25T08:06:42.301Z,2.50
2023-02-25T08:09:13.686Z,2.50
2023-02-25T08:11:41.143Z,2.50
2023-02-25T08:14:08.038Z,2.70
2023-02-25T08:16:35.136Z,2.80
2023-02-25T08:19:02.348Z,2.90
2023-02-25T08:21:30.905Z,3.00
2023-02-25T08:23:58.330Z,3.10
2023-02-25T08:26:27.607Z,3.10
2023-02-25T08:28:56.281Z,3.20
2023-02-25T08:31:24.071Z,3.20
2023-02-25T08:33:52.938Z,3.20
2023-02-25T08:36:26.717Z,3.10
2023-02-25T08:38:54.888Z,3.10
2023-02-25T08:41:23.310Z,3.00
2023-02-25T08:43:55.248Z,3.10
2023-02-25T08:46:27.463Z,3.10
2023-02-25T08:48:55.142Z,3.00
2023-02-25T08:51:24.537Z,3.00
2023-02-25T08:53:52.329Z,3.00
2023-02-25T08:56:19.433Z,3.00
2023-02-25T08:58:46.374Z,2.90
2023-02-25T09:01:16.176Z,2.90
2023-02-25T09:03:51.454Z,3.00
2023-02-25T09:06:28.445Z,2.90
2023-02-25T09:08:56.884Z,3.00
2023-02-25T09:11:25.098Z,3.10
2023-02-25T09:13:53.255Z,3.00
2023-02-25T09:16:20.613Z,3.10
2023-02-25T09:18:50.346Z,3.00
2023-02-25T09:21:18.409Z,3.00
2023-02-25T09:23:47.074Z,3.00
2023-02-25T09:26:14.510Z,3.10
2023-02-25T09:28:41.456Z,3.10
2023-02-25T09:31:08.403Z,3.10
2023-02-25T09:33:37.484Z,3.20
2023-02-25T09:36:11.705Z,3.20
2023-02-25T09:38:40.060Z,3.30
2023-02-25T09:41:39.424Z,3.20
2023-02-25T09:44:28.862Z,3.50
2023-02-25T09:46:55.734Z,3.50
2023-02-25T09:49:44.772Z,3.20
2023-02-25T09:52:38.875Z,3.20
2023-02-25T09:55:21.379Z,3.10
2023-02-25T09:57:57.800Z,2.80
2023-02-25T10:00:24.932Z,2.90
2023-02-25T10:03:02.284Z,2.70
2023-02-25T10:05:44.402Z,2.70
2023-02-25T10:08:23.361Z,2.80
2023-02-25T10:10:59.605Z,2.60
2023-02-25T10:13:44.849Z,2.70
2023-02-25T10:16:36.452Z,2.70
2023-02-25T10:19:09.860Z,2.90
2023-02-25T10:21:39.781Z,2.90
2023-02-25T10:24:37.455Z,2.90
2023-02-25T10:27:41.720Z,3.10
2023-02-25T10:30:20.034Z,3.20
2023-02-25T10:32:47.264Z,3.30
2023-02-25T10:35:29.143Z,3.00
2023-02-25T10:37:56.184Z,3.00
2023-02-25T10:40:25.846Z,2.70
2023-02-25T10:42:55.297Z,2.40
2023-02-25T10:45:27.201Z,2.30
2023-02-25T10:48:22.817Z,2.30
2023-02-25T10:51:19.363Z,2.30
2023-02-25T10:53:58.315Z,2.40
2023-02-25T10:56:27.647Z,2.40
2023-02-25T10:59:25.896Z,2.40
2023-02-25T11:01:55.435Z,2.50
2023-02-25T11:08:07.915Z,2.60
2023-02-25T11:10:35.282Z,2.70
2023-02-25T11:13:04.775Z,2.70
2023-02-25T11:15:46.144Z,2.80
2023-02-25T11:22:11.389Z,2.80
2023-02-25T11:24:39.758Z,2.80
2023-02-25T11:27:08.540Z,2.70
2023-02-25T11:29:41.566Z,2.60
2023-02-25T11:32:18.343Z,2.70
2023-02-25T11:34:55.686Z,2.70
2023-02-25T11:37:45.459Z,2.60
2023-02-25T11:40:21.242Z,2.60
2023-02-25T11:46:00.452Z,2.50
2023-02-25T11:48:41.053Z,2.40
2023-02-25T11:51:27.017Z,2.30
2023-02-25T11:54:12.242Z,2.30
2023-02-25T11:56:45.079Z,2.30
2023-02-25T11:59:13.532Z,2.30
2023-02-25T12:02:20.710Z,2.20
2023-02-25T12:04:57.018Z,2.20
2023-02-25T12:08:00.004Z,2.20
2023-02-25T12:11:10.936Z,2.20
2023-02-25T12:14:11.699Z,2.00
2023-02-25T12:16:47.536Z,1.80
2023-02-25T12:19:32.456Z,1.80
2023-02-25T12:22:13.185Z,1.80
2023-02-25T12:25:01.609Z,1.80
2023-02-25T12:27:47.353Z,1.80
2023-02-25T12:30:38.852Z,1.80
2023-02-25T12:33:48.421Z,1.90
2023-02-25T12:36:31.580Z,1.90
2023-02-25T12:39:28.123Z,2.00
2023-02-25T12:42:13.260Z,1.80
2023-02-25T12:44:40.154Z,1.90
2023-02-25T12:51:21.665Z,1.90
2023-02-25T12:54:18.798Z,1.80
2023-02-25T12:57:16.013Z,1.80
2023-02-25T12:59:42.906Z,1.80
2023-02-25T13:02:37.510Z,1.90
2023-02-25T13:05:16.544Z,1.90
2023-02-25T13:08:23.675Z,1.80
2023-02-25T13:10:56.654Z,1.60
2023-02-25T13:13:46.379Z,1.50
2023-02-25T13:16:42.627Z,1.50
2023-02-25T13:20:00.069Z,1.50
2023-02-25T13:22:37.040Z,1.50
2023-02-25T13:25:12.649Z,1.50
2023-02-25T13:27:53.570Z,1.60
2023-02-25T13:30:39.857Z,1.60
2023-02-25T13:33:46.222Z,1.60
2023-02-25T13:36:55.331Z,1.60
2023-02-25T13:39:40.657Z,1.60
2023-02-25T13:42:29.470Z,1.50
2023-02-25T13:45:26.969Z,1.50
2023-02-25T13:48:05.928Z,1.50
2023-02-25T13:54:47.375Z,1.30
2023-02-25T13:58:00.109Z,1.30
2023-02-25T14:00:33.209Z,1.20
2023-02-25T14:03:28.588Z,1.20
2023-02-25T14:06:01.532Z,1.10
2023-02-25T14:08:53.213Z,1.20
2023-02-25T14:11:46.157Z,1.20
2023-02-25T14:14:37.791Z,1.10
2023-02-25T14:17:51.823Z,0.90
2023-02-25T14:20:33.878Z,0.80
2023-02-25T14:23:27.950Z,0.80
2023-02-25T14:26:06.717Z,0.90
2023-02-25T14:28:33.575Z,0.90
2023-02-25T14:31:28.259Z,0.90
2023-02-25T14:34:04.537Z,1.00
2023-02-25T14:37:10.348Z,0.80
2023-02-25T14:39:58.479Z,0.60
2023-02-25T14:42:48.537Z,0.80
2023-02-25T14:45:21.935Z,0.80
2023-02-25T14:48:10.737Z,0.80
2023-02-25T14:50:49.044Z,0.80
2023-02-25T14:53:43.472Z,0.90
2023-02-25T14:56:10.456Z,0.80
2023-02-25T14:58:51.233Z,0.80
2023-02-25T15:01:34.261Z,0.70
2023-02-25T15:04:35.725Z,0.60
2023-02-25T15:07:47.437Z,0.60
2023-02-25T15:10:42.189Z,0.60
2023-02-25T15:13:15.255Z,0.60
2023-02-25T15:16:09.738Z,0.60
2023-02-25T15:19:14.386Z,0.60
2023-02-25T15:21:49.839Z,0.50
2023-02-25T15:24:38.152Z,0.50
2023-02-25T15:27:32.115Z,0.50
2023-02-25T15:30:02.138Z,0.50
2023-02-25T15:32:45.623Z,0.50
2023-02-25T15:35:24.956Z,0.50
2023-02-25T15:37:52.220Z,0.50
2023-02-25T15:40:21.522Z,0.50
2023-02-25T15:43:01.672Z,0.50
2023-02-25T15:45:28.701Z,0.50
2023-02-25T15:48:07.585Z,0.60
2023-02-25T15:50:43.661Z,0.50
2023-02-25T15:53:21.215Z,0.50
2023-02-25T15:55:53.055Z,0.40
2023-02-25T15:58:25.998Z,0.40
2023-02-25T16:01:22.154Z,0.40
2023-02-25T16:03:49.532Z,0.50
2023-02-25T16:06:39.099Z,0.50
2023-02-25T16:09:10.384Z,0.40
2023-02-25T16:11:44.667Z,0.40
2023-02-25T16:14:30.929Z,0.40
2023-02-25T16:17:23.875Z,0.30
2023-02-25T16:20:02.814Z,0.30
2023-02-25T16:22:30.360Z,0.30
2023-02-25T16:24:59.337Z,0.30
2023-02-25T16:27:50.753Z,0.30
2023-02-25T16:30:21.951Z,0.30
2023-02-25T16:32:59.204Z,0.30
2023-02-25T16:35:28.519Z,0.30
2023-02-25T16:38:00.844Z,0.30
2023-02-25T16:40:42.391Z,0.30
2023-02-25T16:43:19.029Z,0.30
2023-02-25T16:46:01.657Z,0.40
2023-02-25T16:48:36.997Z,0.40
2023-02-25T16:51:15.063Z,0.30
2023-02-25T16:53:46.971Z,0.30
2023-02-25T16:56:25.815Z,0.30
2023-02-25T16:59:21.743Z,0.40
2023-02-25T17:02:01.330Z,0.50
2023-02-25T17:04:34.820Z,0.40
2023-02-25T17:07:18.003Z,0.50
2023-02-25T17:09:51.986Z,0.50
2023-02-25T17:12:28.278Z,0.50
2023-02-25T17:14:56.856Z,0.40
2023-02-25T17:17:44.600Z,0.50
2023-02-25T17:20:19.572Z,0.50
2023-02-25T17:22:46.790Z,0.50
2023-02-25T17:25:16.216Z,0.70
2023-02-25T17:27:45.623Z,0.70
2023-02-25T17:30:47.700Z,0.70
2023-02-25T17:33:28.244Z,0.90
2023-02-25T17:36:03.484Z,0.90
2023-02-25T17:38:30.926Z,1.00
2023-02-25T17:40:59.367Z,0.90
2023-02-25T17:43:46.768Z,0.90
2023-02-25T17:46:28.929Z,0.90
2023-02-25T17:48:59.778Z,0.90
2023-02-25T17:51:36.413Z,0.90
2023-02-25T17:54:05.795Z,0.90
2023-02-25T17:56:34.339Z,0.90
2023-02-25T17:59:23.831Z,0.80
2023-02-25T18:02:00.912Z,0.90
2023-02-25T18:04:35.287Z,0.90
2023-02-25T18:07:29.764Z,0.90
2023-02-25T18:09:57.398Z,0.90
2023-02-25T18:12:37.262Z,1.00
2023-02-25T18:15:04.280Z,1.10
2023-02-25T18:17:37.084Z,1.10
2023-02-25T18:20:25.399Z,1.10
2023-02-25T18:22:53.974Z,0.90
2023-02-25T18:25:31.558Z,1.10
2023-02-25T18:27:58.643Z,1.00
2023-02-25T18:30:28.140Z,1.10
2023-02-25T18:32:57.567Z,1.20
2023-02-25T18:35:29.533Z,1.20
2023-02-25T18:37:58.427Z,1.20
2023-02-25T18:40:25.366Z,1.20
2023-02-25T18:42:52.260Z,1.20
2023-02-25T18:45:21.226Z,1.20
2023-02-25T18:47:48.923Z,1.10
2023-02-25T18:50:16.537Z,1.20
2023-02-25T18:52:43.996Z,1.20
2023-02-25T18:55:18.984Z,1.20
2023-02-25T18:57:45.969Z,1.20
2023-02-25T19:00:14.538Z,1.20
2023-02-25T19:02:50.220Z,1.20
2023-02-25T19:05:18.995Z,1.30
2023-02-25T19:07:46.004Z,1.30
2023-02-25T19:10:18.447Z,1.30
2023-02-25T19:12:48.617Z,1.30
2023-02-25T19:15:19.483Z,1.20
2023-02-25T19:17:46.862Z,1.20
2023-02-25T19:20:15.775Z,1.30
2023-02-25T19:22:45.140Z,1.30
2023-02-25T19:25:29.585Z,1.30
2023-02-25T19:27:57.502Z,1.30
2023-02-25T19:30:31.042Z,1.20
2023-02-25T19:33:04.330Z,1.00
2023-02-25T19:35:34.670Z,0.70
2023-02-25T19:38:01.967Z,0.50
2023-02-25T19:40:31.941Z,0.50
2023-02-25T19:42:59.126Z,0.50
2023-02-25T19:45:27.130Z,0.50
2023-02-25T19:47:55.064Z,0.50
2023-02-25T19:50:25.256Z,0.40
2023-02-25T19:52:53.653Z,0.50
2023-02-25T19:55:21.100Z,0.50
2023-02-25T19:57:48.365Z,0.50
2023-02-25T20:00:21.342Z,0.50
2023-02-25T20:02:48.843Z,0.50
2023-02-25T20:05:15.764Z,0.50
2023-02-25T20:07:43.389Z,0.50
2023-02-25T20:10:13.254Z,0.60
2023-02-25T20:12:45.413Z,0.60
2023-02-25T20:15:13.839Z,0.50
2023-02-25T20:17:42.396Z,0.30
2023-02-25T20:20:10.544Z,0.20
2023-02-25T20:22:39.107Z,0.10
2023-02-25T20:25:08.096Z,0.20
2023-02-25T20:27:37.155Z,0.20
2023-02-25T20:30:06.398Z,0.20
2023-02-25T20:32:33.746Z,0.20
2023-02-25T20:35:01.092Z,0.20
2023-02-25T20:37:33.107Z,0.20
2023-02-25T20:40:00.622Z,0.30
2023-02-25T20:42:30.938Z,0.30
2023-02-25T20:44:59.300Z,0.30
2023-02-25T20:47:34.997Z,0.30
2023-02-25T20:50:02.907Z,0.30
2023-02-25T20:52:29.944Z,0.30
2023-02-25T20:54:58.065Z,0.20
2023-02-25T20:57:27.172Z,0.20
2023-02-25T20:59:54.755Z,0.20
2023-02-25T21:02:22.161Z,0.30
2023-02-25T21:04:50.514Z,0.30
2023-02-25T21:07:17.932Z,0.40
2023-02-25T21:09:44.991Z,0.50
2023-02-25T21:12:12.299Z,0.50
2023-02-25T21:14:39.293Z,0.50
2023-02-25T21:17:09.558Z,0.50
2023-02-25T21:19:38.815Z,0.50
2023-02-25T21:22:07.452Z,0.50
2023-02-25T21:24:34.920Z,0.60
2023-02-25T21:27:02.522Z,0.50
2023-02-25T21:29:29.498Z,0.40
2023-02-25T21:31:56.899Z,0.40
2023-02-25T21:34:23.930Z,0.40
2023-02-25T21:36:51.090Z,0.40
2023-02-25T21:39:18.301Z,0.50
2023-02-25T21:41:45.325Z,0.40
2023-02-25T21:44:13.419Z,0.30
2023-02-25T21:46:40.897Z,0.30
2023-02-25T21:49:10.510Z,0.20
2023-02-25T21:51:37.729Z,0.10
2023-02-25T21:54:04.738Z,0.10
2023-02-25T21:56:32.567Z,0.10
2023-02-25T21:59:01.789Z,0.20
2023-02-25T22:01:40.822Z,0.20
2023-02-25T22:04:08.819Z,0.20
2023-02-25T22:06:35.789Z,0.00
2023-02-25T22:09:03.498Z,-0.10
2023-02-25T22:11:33.165Z,-0.10
2023-02-25T22:14:02.334Z,-0.20
2023-02-25T22:16:29.881Z,-0.20
2023-02-25T22:18:57.486Z,-0.10
2023-02-25T22:21:33.132Z,0.00
2023-02-25T22:24:02.214Z,0.10
2023-02-25T22:26:32.724Z,0.20
2023-02-25T22:29:02.096Z,0.30
2023-02-25T22:31:29.925Z,0.30
2023-02-25T22:33:57.832Z,0.30
2023-02-25T22:36:25.884Z,0.30
2023-02-25T22:38:53.530Z,0.30
2023-02-25T22:41:23.632Z,0.30
2023-02-25T22:43:50.624Z,0.30
2023-02-25T22:46:24.014Z,0.30
2023-02-25T22:48:51.884Z,0.40
2023-02-25T22:51:24.766Z,0.40
2023-02-25T22:53:52.436Z,0.40
2023-02-25T22:56:19.475Z,0.40
2023-02-25T23:02:33.796Z,0.40
2023-02-25T23:05:00.761Z,0.40
2023-02-25T23:07:27.667Z,0.40
2023-02-25T23:09:54.621Z,0.40
2023-02-25T23:12:21.531Z,0.40
2023-02-25T23:14:48.459Z,0.40
2023-02-25T23:17:15.384Z,0.40
2023-02-25T23:19:42.309Z,0.40
2023-02-25T23:22:09.749Z,0.30
2023-02-25T23:24:37.204Z,0.30
2023-02-25T23:27:04.127Z,0.30
2023-02-25T23:29:31.078Z,0.20
2023-02-25T23:31:58.004Z,0.20
2023-02-25T23:34:25.033Z,0.20
2023-02-25T23:36:55.761Z,0.10
2023-02-25T23:39:22.764Z,0.10
2023-02-25T23:41:49.926Z,0.10
2023-02-25T23:44:16.934Z,0.20
2023-02-25T23:46:45.216Z,0.20
2023-02-25T23:49:14.505Z,0.30
2023-02-25T23:51:43.822Z,0.30
2023-02-25T23:54:14.925Z,0.30
2023-02-25T23:56:41.898Z,0.30
2023-02-25T23:59:10.521Z,0.30
